Time;durP1;ratioP1;P1;durP2;ratioP2;P2;SDS_P1;SDS_P2;PMS_P1;PMS_P2;Temp;Humidity;BMP_temperature;BMP_pressure;BME280_temperature;BME280_humidity;BME280_pressure;Samples;Min_cycle;Max_cycle;Signal;HPM_P1;HPM_P2
2022/12/15 00:38:44;;;;;;;0.70;0.70;;;-4.40;99.90;;;;;;5052900;28;20180;-79
2022/12/15 00:41:15;;;;;;;0.50;0.45;;;-4.50;99.90;;;;;;5074968;28;20285;-79
2022/12/15 00:43:42;;;;;;;0.50;0.50;;;-4.40;99.90;;;;;;5091635;28;20265;-79
2022/12/15 00:48:53;;;;;;;5.47;3.88;;;-4.40;99.90;;;;;;5085920;28;20181;-76
2022/12/15 00:51:19;;;;;;;2.08;1.98;;;-4.40;99.90;;;;;;5084185;28;20284;-77
2022/12/15 01:21:13;;;;;;;2.90;2.55;;;-4.10;99.90;;;;;;5083884;28;20673;-78
2022/12/15 01:23:41;;;;;;;2.08;1.98;;;-4.10;99.90;;;;;;5090770;28;20189;-79
2022/12/15 01:26:08;;;;;;;2.20;2.10;;;-4.10;99.90;;;;;;5091521;28;20595;-79
2022/12/15 01:28:36;;;;;;;2.88;2.78;;;-4.10;99.90;;;;;;5091680;28;20222;-77
2022/12/15 01:31:10;;;;;;;1.30;1.30;;;-4.10;99.90;;;;;;5092433;28;20205;-79
2022/12/15 01:33:37;;;;;;;2.88;1.77;;;-4.10;99.90;;;;;;5092431;28;20204;-78
2022/12/15 01:36:04;;;;;;;4.43;3.72;;;-4.20;99.90;;;;;;5091191;28;20216;-77
2022/12/15 01:38:31;;;;;;;5.03;4.55;;;-4.20;99.90;;;;;;5092312;28;20287;-78
2022/12/15 01:40:59;;;;;;;2.28;2.17;;;-4.10;99.90;;;;;;5092289;28;20615;-78
2022/12/15 01:43:29;;;;;;;2.83;2.72;;;-4.20;99.90;;;;;;5091807;28;20189;-77
2022/12/15 01:46:03;;;;;;;3.30;2.95;;;-4.20;99.90;;;;;;5090453;28;20224;-78
2022/12/15 01:48:35;;;;;;;3.55;3.45;;;-4.20;99.90;;;;;;5086649;28;20300;-78
2022/12/15 01:51:10;;;;;;;0.88;0.88;;;-4.20;99.90;;;;;;5082421;28;20659;-77
2022/12/15 01:53:42;;;;;;;8.43;6.38;;;-4.20;99.90;;;;;;5083182;28;20208;-79
2022/12/15 01:56:10;;;;;;;5.40;4.65;;;-4.20;99.90;;;;;;5090959;28;20225;-78
2022/12/15 01:58:40;;;;;;;11.18;3.08;;;-4.10;99.90;;;;;;5092165;28;20238;-79
2022/12/15 02:01:09;;;;;;;6.38;3.78;;;-4.10;99.90;;;;;;5092221;28;20279;-77
2022/12/15 02:03:37;;;;;;;6.40;3.95;;;-4.10;99.90;;;;;;5093793;28;20623;-79
2022/12/15 02:06:04;;;;;;;8.73;7.10;;;-4.10;99.90;;;;;;5090733;28;20320;-78
2022/12/15 02:08:32;;;;;;;20.15;5.50;;;-4.10;99.90;;;;;;5092197;28;20619;-78
2022/12/15 02:11:31;;;;;;;6.57;4.65;;;-4.10;99.90;;;;;;5091608;28;20189;-78
2022/12/15 02:14:01;;;;;;;8.30;4.38;;;-4.10;99.90;;;;;;5048746;28;20390;-78
2022/12/15 02:16:39;;;;;;;1.45;1.35;;;-4.10;99.90;;;;;;5091749;28;20301;-78
2022/12/15 02:19:25;;;;;;;3.75;3.55;;;-4.00;99.90;;;;;;5091699;28;20735;-78
2022/12/15 02:22:08;;;;;;;2.15;1.98;;;-4.00;99.90;;;;;;5085010;28;20188;-77
2022/12/15 02:25:04;;;;;;;6.80;5.53;;;-4.00;99.90;;;;;;5075240;28;20733;-78
2022/12/15 02:28:02;;;;;;;2.08;1.98;;;-4.00;99.90;;;;;;5091495;28;20305;-78
2022/12/15 02:31:48;;;;;;;6.97;6.35;;;-4.10;99.90;;;;;;5074648;28;20233;-79
2022/12/15 02:33:40;;;;;;;5.40;2.40;;;-4.10;99.90;;;;;;5091224;28;20220;-78
2022/12/15 02:36:15;;;;;;;5.13;4.47;;;-4.10;99.90;;;;;;5090596;28;20228;-77
2022/12/15 02:38:43;;;;;;;14.00;10.18;;;-4.10;99.90;;;;;;5091344;28;20523;-77
2022/12/15 02:41:36;;;;;;;5.85;5.10;;;-4.10;99.90;;;;;;5091491;28;20199;-78
2022/12/15 02:44:08;;;;;;;6.90;6.28;;;-4.10;99.90;;;;;;5090601;28;20203;-78
2022/12/15 02:46:48;;;;;;;6.85;4.70;;;-4.10;99.90;;;;;;5090795;28;20213;-75
2022/12/15 02:49:26;;;;;;;17.02;5.90;;;-4.10;99.90;;;;;;5091437;28;20316;-78
2022/12/15 02:52:04;;;;;;;6.78;6.28;;;-4.10;99.90;;;;;;5091193;28;20290;-79
2022/12/15 02:54:57;;;;;;;3.90;3.60;;;-4.10;99.90;;;;;;5070929;28;20702;-78
2022/12/15 02:57:32;;;;;;;2.45;1.95;;;-4.10;99.90;;;;;;5091972;28;20260;-77
2022/12/15 03:00:05;;;;;;;0.50;0.40;;;-4.10;99.90;;;;;;5096009;28;20288;-78
2022/12/15 03:02:37;;;;;;;1.73;1.60;;;-4.20;99.90;;;;;;5095152;28;20260;-79
2022/12/15 03:05:05;;;;;;;1.35;1.25;;;-4.20;99.90;;;;;;5094154;28;20184;-78
2022/12/15 03:07:32;;;;;;;4.07;3.65;;;-4.20;99.90;;;;;;5093709;28;20220;-78
2022/12/15 03:10:02;;;;;;;1.98;1.80;;;-4.20;99.90;;;;;;5094984;28;20200;-78
2022/12/15 03:12:28;;;;;;;3.20;3.00;;;-4.20;99.90;;;;;;5095038;28;20599;-78
2022/12/15 03:14:55;;;;;;;0.73;0.73;;;-4.30;99.90;;;;;;5093985;28;20711;-74
2022/12/15 03:17:22;;;;;;;5.35;2.00;;;-4.30;99.90;;;;;;5094809;28;20213;-79
2022/12/15 03:19:50;;;;;;;3.80;3.50;;;-4.40;99.90;;;;;;5104057;28;20201;-75
2022/12/15 03:22:17;;;;;;;2.97;2.33;;;-4.40;99.90;;;;;;5102901;28;20207;-78
2022/12/15 03:24:44;;;;;;;2.05;1.85;;;-4.40;99.90;;;;;;5088785;28;20248;-76
2022/12/15 03:27:11;;;;;;;4.93;3.20;;;-4.40;99.90;;;;;;5095884;28;20213;-76
2022/12/15 03:29:38;;;;;;;10.40;7.72;;;-4.40;99.90;;;;;;5096234;28;20261;-78
2022/12/15 03:32:05;;;;;;;2.83;2.72;;;-4.50;99.90;;;;;;5096856;28;20195;-77
2022/12/15 03:34:32;;;;;;;14.90;6.57;;;-4.50;99.90;;;;;;5095068;28;20193;-76
2022/12/15 03:37:00;;;;;;;6.47;5.22;;;-4.50;99.90;;;;;;5096713;28;20940;-76
2022/12/15 03:39:27;;;;;;;6.60;6.03;;;-4.50;99.90;;;;;;5094756;28;20206;-76
2022/12/15 03:41:54;;;;;;;6.47;5.78;;;-4.50;99.90;;;;;;5094926;28;20198;-77
2022/12/15 03:44:21;;;;;;;2.70;2.42;;;-4.50;99.90;;;;;;5094642;28;20190;-77
2022/12/15 03:46:48;;;;;;;5.68;4.45;;;-4.50;99.90;;;;;;5095198;28;20296;-76
2022/12/15 03:49:15;;;;;;;14.93;5.75;;;-4.50;99.90;;;;;;5095905;28;20284;-79
2022/12/15 03:51:42;;;;;;;6.05;5.03;;;-4.50;99.90;;;;;;5095356;28;20196;-75
2022/12/15 03:54:11;;;;;;;3.50;3.17;;;-4.50;99.90;;;;;;5085614;28;20218;-77
2022/12/15 03:56:38;;;;;;;8.98;3.47;;;-4.50;99.90;;;;;;5093631;28;20300;-77
2022/12/15 03:59:05;;;;;;;6.00;4.00;;;-4.50;99.90;;;;;;5095521;28;20194;-77
2022/12/15 04:01:34;;;;;;;11.23;6.05;;;-4.40;99.90;;;;;;5095427;28;20200;-80
2022/12/15 04:04:02;;;;;;;2.65;2.55;;;-4.40;99.90;;;;;;5094296;28;20582;-75
2022/12/15 04:06:29;;;;;;;4.47;4.13;;;-4.50;99.90;;;;;;5095357;28;20308;-76
2022/12/15 04:08:56;;;;;;;4.25;2.50;;;-4.50;99.90;;;;;;5094943;28;20240;-79
2022/12/15 04:11:24;;;;;;;5.80;4.50;;;-4.50;99.90;;;;;;5095660;28;20197;-77
2022/12/15 04:13:51;;;;;;;6.53;3.08;;;-4.60;99.90;;;;;;5094694;28;20252;-78
2022/12/15 04:16:18;;;;;;;8.13;5.15;;;-4.60;99.90;;;;;;5094944;28;20297;-77
2022/12/15 04:18:45;;;;;;;25.90;5.32;;;-4.60;99.90;;;;;;5094754;28;20280;-76
2022/12/15 04:21:10;;;;;;;7.45;5.05;;;-4.50;99.90;;;;;;5094135;28;20193;-78
2022/12/15 04:23:37;;;;;;;8.90;8.07;;;-4.60;99.90;;;;;;5089421;28;20192;-74
2022/12/15 05:32:14;;;;;;;4.35;2.55;;;-4.50;99.90;;;;;;5092588;28;20562;-77
2022/12/15 05:34:42;;;;;;;6.88;2.33;;;-4.50;99.90;;;;;;5091356;28;20217;-75
2022/12/15 05:37:09;;;;;;;3.63;3.53;;;-4.50;99.90;;;;;;5091632;28;20220;-77
2022/12/15 05:39:35;;;;;;;2.42;2.25;;;-4.50;99.90;;;;;;5092422;28;20189;-76
2022/12/15 05:42:02;;;;;;;13.98;6.35;;;-4.50;99.90;;;;;;5092667;28;20193;-77
2022/12/15 05:44:29;;;;;;;2.58;2.45;;;-4.50;99.90;;;;;;5091386;28;20190;-77
2022/12/15 05:46:56;;;;;;;7.53;5.30;;;-4.50;99.90;;;;;;5092382;28;20300;-76
2022/12/15 05:49:23;;;;;;;4.50;4.15;;;-4.50;99.90;;;;;;5092027;28;20223;-76
2022/12/15 05:51:51;;;;;;;10.50;5.78;;;-4.50;99.90;;;;;;5092468;28;20196;-76
2022/12/15 05:54:19;;;;;;;2.50;2.30;;;-4.50;99.90;;;;;;5081030;28;20221;-77
2022/12/15 05:56:47;;;;;;;5.15;4.85;;;-4.40;99.90;;;;;;5091416;28;20221;-74
2022/12/15 05:59:15;;;;;;;18.20;9.52;;;-4.40;99.90;;;;;;5093230;28;20196;-79
2022/12/15 06:01:42;;;;;;;2.75;2.33;;;-4.40;99.90;;;;;;5092852;28;20197;-78
2022/12/15 06:04:10;;;;;;;4.20;3.90;;;-4.40;99.90;;;;;;5090529;28;20663;-77
2022/12/15 06:06:37;;;;;;;0.70;0.60;;;-4.40;99.90;;;;;;5091545;28;20225;-76
2022/12/15 06:09:06;;;;;;;10.23;2.67;;;-4.50;99.90;;;;;;5091598;28;20197;-78
2022/12/15 06:11:33;;;;;;;2.67;2.35;;;-4.50;99.90;;;;;;5091892;28;20228;-78
2022/12/15 06:13:59;;;;;;;4.05;3.22;;;-4.50;99.90;;;;;;5091621;28;20303;-79
2022/12/15 06:16:27;;;;;;;2.13;2.00;;;-4.60;99.90;;;;;;5092311;28;20216;-79
2022/12/15 06:18:56;;;;;;;3.13;2.88;;;-4.60;99.90;;;;;;5091699;28;20232;-77
2022/12/15 06:21:25;;;;;;;3.50;3.30;;;-4.60;99.90;;;;;;5092493;28;20295;-78
2022/12/15 06:23:52;;;;;;;16.00;6.15;;;-4.60;99.90;;;;;;5080779;28;20263;-81
2022/12/15 06:26:24;;;;;;;10.85;5.47;;;-4.60;99.90;;;;;;5092817;28;20215;-78
2022/12/15 06:28:51;;;;;;;1.75;1.65;;;-4.50;99.90;;;;;;5092502;28;20185;-76
2022/12/15 06:31:21;;;;;;;2.45;2.35;;;-4.50;99.90;;;;;;5092068;28;20288;-79
2022/12/15 06:33:48;;;;;;;4.47;3.15;;;-4.50;99.90;;;;;;5095569;28;20300;-77
2022/12/15 06:36:17;;;;;;;31.73;3.80;;;-4.60;99.90;;;;;;5095423;28;20741;-78
2022/12/15 06:38:44;;;;;;;11.60;7.82;;;-4.60;99.90;;;;;;5095947;28;20197;-79
2022/12/15 06:41:13;;;;;;;14.55;6.97;;;-4.60;99.90;;;;;;5096176;28;20197;-78
2022/12/15 06:43:41;;;;;;;0.93;0.93;;;-4.60;99.90;;;;;;5096398;28;20532;-78
2022/12/15 06:46:08;;;;;;;14.82;5.65;;;-4.60;99.90;;;;;;5095137;28;20252;-78
2022/12/15 06:48:36;;;;;;;4.97;4.55;;;-4.60;99.90;;;;;;5095941;28;20205;-78
2022/12/15 06:51:04;;;;;;;5.22;3.83;;;-4.60;99.90;;;;;;5088192;28;20197;-76
2022/12/15 06:53:31;;;;;;;9.65;5.00;;;-4.60;99.90;;;;;;5082744;28;20210;-78
2022/12/15 06:56:01;;;;;;;3.20;3.00;;;-4.60;99.90;;;;;;5074591;28;20202;-77
2022/12/15 06:58:28;;;;;;;6.30;4.13;;;-4.60;99.90;;;;;;5075509;28;20220;-78
2022/12/15 07:00:57;;;;;;;2.95;1.48;;;-4.60;99.90;;;;;;5074825;28;20288;-77
2022/12/15 07:03:24;;;;;;;4.40;2.40;;;-4.60;99.90;;;;;;5075193;28;20568;-77
2022/12/15 07:06:01;;;;;;;3.33;2.38;;;-4.70;99.90;;;;;;5074281;28;20190;-78
2022/12/15 07:08:28;;;;;;;6.90;3.50;;;-4.70;99.90;;;;;;5075173;28;20201;-78
2022/12/15 07:10:55;;;;;;;2.78;2.55;;;-4.70;99.90;;;;;;5075120;28;20560;-76
2022/12/15 07:13:23;;;;;;;6.15;4.07;;;-4.70;99.90;;;;;;5074846;28;20225;-78
2022/12/15 07:15:49;;;;;;;7.78;7.13;;;-4.60;99.90;;;;;;5074046;28;20624;-76
2022/12/15 07:18:18;;;;;;;0.93;0.93;;;-4.70;99.90;;;;;;5074896;28;20201;-77
2022/12/15 07:20:45;;;;;;;1.80;1.17;;;-4.70;99.90;;;;;;5077031;28;20925;-78
2022/12/15 07:23:12;;;;;;;3.38;3.15;;;-4.70;99.90;;;;;;5085738;28;20553;-76
2022/12/15 07:25:39;;;;;;;5.28;4.28;;;-4.70;99.90;;;;;;5094085;28;20198;-76
2022/12/15 07:28:06;;;;;;;3.97;3.63;;;-4.70;99.90;;;;;;5094317;28;20220;-76
2022/12/15 07:30:34;;;;;;;6.07;5.43;;;-4.70;99.90;;;;;;5094634;28;20650;-79
2022/12/15 07:33:01;;;;;;;6.40;4.88;;;-4.70;99.90;;;;;;5094750;28;20651;-77
2022/12/15 07:35:29;;;;;;;6.43;3.15;;;-4.70;99.90;;;;;;5093570;28;20280;-77
2022/12/15 07:37:56;;;;;;;5.97;5.10;;;-4.70;99.90;;;;;;5094575;28;20214;-76
2022/12/15 07:40:23;;;;;;;12.52;8.50;;;-4.70;99.90;;;;;;5093834;28;20285;-76
2022/12/15 07:42:50;;;;;;;2.25;2.15;;;-4.70;99.90;;;;;;5094125;28;20193;-76
2022/12/15 07:45:17;;;;;;;12.60;4.45;;;-4.70;99.90;;;;;;5092497;28;20190;-76
2022/12/15 07:47:43;;;;;;;12.05;4.47;;;-4.70;99.90;;;;;;5094033;28;20632;-76
2022/12/15 07:50:10;;;;;;;3.85;3.65;;;-4.70;99.90;;;;;;5092266;28;20196;-78
2022/12/15 07:52:38;;;;;;;10.63;6.75;;;-4.70;99.90;;;;;;5083762;28;20563;-76
2022/12/15 07:55:06;;;;;;;17.30;8.85;;;-4.70;99.90;;;;;;5092759;28;20218;-77
2022/12/15 07:57:33;;;;;;;13.32;6.93;;;-4.70;99.90;;;;;;5093538;28;20256;-77
2022/12/15 08:00:00;;;;;;;12.73;4.70;;;-4.70;99.90;;;;;;5093949;28;20193;-78
2022/12/15 08:02:27;;;;;;;6.68;5.80;;;-4.70;99.90;;;;;;5093399;28;20221;-76
2022/12/15 08:04:53;;;;;;;24.95;11.85;;;-4.70;99.90;;;;;;5092758;28;20237;-77
2022/12/15 08:07:20;;;;;;;5.50;4.18;;;-4.60;99.90;;;;;;5093417;28;20213;-76
2022/12/15 08:09:49;;;;;;;12.85;9.07;;;-4.60;99.90;;;;;;5082032;22;20230;-72
2022/12/15 08:12:16;;;;;;;5.25;4.00;;;-4.50;99.90;;;;;;5063436;28;20207;-72
2022/12/15 08:14:43;;;;;;;6.93;4.72;;;-4.40;99.90;;;;;;5062150;28;20214;-72
2022/12/15 08:17:10;;;;;;;8.27;4.45;;;-4.20;99.90;;;;;;5069990;28;20205;-72
2022/12/15 08:19:36;;;;;;;2.15;2.05;;;-4.10;99.90;;;;;;5052360;28;20708;-72
2022/12/15 08:22:03;;;;;;;7.93;7.13;;;-4.00;99.90;;;;;;5066025;28;20235;-72
2022/12/15 08:24:30;;;;;;;6.72;6.10;;;-3.90;99.90;;;;;;5067055;28;20229;-73
2022/12/15 08:26:59;;;;;;;4.40;3.85;;;-3.80;99.90;;;;;;5072306;28;20194;-73
2022/12/15 08:29:25;;;;;;;9.40;6.63;;;-3.70;99.90;;;;;;5072863;28;20218;-72
2022/12/15 08:31:52;;;;;;;13.73;5.88;;;-3.70;99.90;;;;;;5072577;28;20198;-75
2022/12/15 08:34:20;;;;;;;2.75;2.05;;;-3.70;99.90;;;;;;5072071;28;20308;-73
2022/12/15 08:36:46;;;;;;;14.35;5.38;;;-3.80;99.90;;;;;;5072474;28;20634;-72
2022/12/15 08:39:13;;;;;;;5.78;4.85;;;-3.80;99.90;;;;;;5071730;28;20569;-72
2022/12/15 08:41:40;;;;;;;1.58;1.48;;;-3.80;99.90;;;;;;5072197;28;20190;-73
2022/12/15 08:44:08;;;;;;;7.68;2.95;;;-3.80;99.90;;;;;;5071739;28;20186;-72
2022/12/15 08:46:35;;;;;;;7.25;3.38;;;-3.70;99.90;;;;;;5071575;28;20205;-73
2022/12/15 08:49:03;;;;;;;8.10;4.50;;;-3.60;99.90;;;;;;5071960;28;20251;-72
2022/12/15 08:51:31;;;;;;;6.50;5.97;;;-3.30;99.90;;;;;;5071462;28;20305;-72
2022/12/15 08:53:59;;;;;;;9.43;4.80;;;-3.00;99.90;;;;;;5063444;28;20304;-72
2022/12/15 08:56:27;;;;;;;8.82;4.35;;;-2.80;99.90;;;;;;5071628;28;20199;-73
2022/12/15 08:58:56;;;;;;;2.15;2.05;;;-2.70;99.90;;;;;;5072495;28;20284;-73
2022/12/15 09:01:26;;;;;;;1.80;1.70;;;-2.60;99.90;;;;;;5071621;28;20288;-74
2022/12/15 09:03:54;;;;;;;1.63;1.52;;;-2.40;99.90;;;;;;5070998;28;20841;-72
2022/12/15 09:06:23;;;;;;;7.15;6.32;;;-2.20;99.90;;;;;;5071695;28;20748;-73
2022/12/15 09:08:50;;;;;;;4.50;4.07;;;-2.10;99.90;;;;;;5071101;28;20225;-74
2022/12/15 09:11:17;;;;;;;8.95;7.07;;;-2.00;99.90;;;;;;5071729;28;20310;-73
2022/12/15 09:13:44;;;;;;;13.45;5.00;;;-2.00;99.90;;;;;;5070641;28;20232;-69
2022/12/15 09:16:14;;;;;;;10.68;5.60;;;-2.00;99.90;;;;;;5070950;28;20210;-72
2022/12/15 09:18:44;;;;;;;12.10;7.10;;;-1.90;99.90;;;;;;5071034;28;20224;-72
2022/12/15 09:21:12;;;;;;;9.40;2.28;;;-1.70;99.90;;;;;;5071674;28;20196;-72
2022/12/15 09:23:39;;;;;;;26.00;12.18;;;-1.60;99.90;;;;;;5061376;28;20620;-72
2022/12/15 09:26:11;;;;;;;17.67;6.68;;;-1.50;99.90;;;;;;5070770;28;20296;-72
2022/12/15 09:28:38;;;;;;;16.70;7.22;;;-1.50;99.90;;;;;;5071030;28;20305;-72
2022/12/15 09:31:07;;;;;;;3.05;2.13;;;-1.60;99.90;;;;;;5071176;28;20596;-72
2022/12/15 09:33:34;;;;;;;12.02;6.57;;;-1.50;99.90;;;;;;5070876;28;20227;-72
2022/12/15 09:36:03;;;;;;;11.23;7.35;;;-1.20;99.90;;;;;;5070490;28;20305;-72
2022/12/15 09:38:30;;;;;;;11.88;6.35;;;-1.00;99.90;;;;;;5070440;28;20272;-74
2022/12/15 09:40:57;;;;;;;18.50;8.85;;;-1.20;99.90;;;;;;5071141;28;20215;-75
2022/12/15 09:43:27;;;;;;;20.35;12.13;;;-1.50;99.90;;;;;;5071307;28;20203;-74
2022/12/15 09:46:03;;;;;;;18.63;10.32;;;-1.80;99.90;;;;;;5070539;28;20221;-74
2022/12/15 09:48:36;;;;;;;11.57;8.25;;;-2.00;99.90;;;;;;5071186;28;20672;-74
2022/12/15 09:51:08;;;;;;;3.25;3.15;;;-2.30;99.90;;;;;;5069796;28;20616;-74
2022/12/15 09:53:36;;;;;;;8.32;7.05;;;-2.30;99.90;;;;;;5061844;28;20208;-74
2022/12/15 09:56:08;;;;;;;15.57;6.35;;;-2.10;99.90;;;;;;5070459;28;20311;-74
2022/12/15 09:58:49;;;;;;;6.35;5.20;;;-1.90;99.90;;;;;;5070809;28;20235;-72
2022/12/15 10:01:23;;;;;;;15.50;10.75;;;-1.50;99.90;;;;;;5070866;28;20237;-74
2022/12/15 10:03:56;;;;;;;5.45;4.95;;;-1.50;99.90;;;;;;5070766;28;20343;-74
2022/12/15 10:06:32;;;;;;;11.15;9.30;;;-1.40;99.90;;;;;;5071285;28;20283;-74
2022/12/15 10:09:02;;;;;;;4.05;3.53;;;-1.60;99.90;;;;;;5064328;28;20222;-73
2022/12/15 10:11:42;;;;;;;16.83;6.65;;;-1.90;99.90;;;;;;5067658;28;20218;-73
2022/12/15 10:14:20;;;;;;;19.65;13.35;;;-1.80;99.90;;;;;;5070520;28;20290;-74
2022/12/15 10:17:02;;;;;;;23.95;10.63;;;-1.90;99.90;;;;;;5070434;28;20179;-74
2022/12/15 10:19:36;;;;;;;16.60;10.25;;;-2.00;99.90;;;;;;5071247;28;20214;-74
2022/12/15 10:22:05;;;;;;;1.30;1.30;;;-2.10;99.90;;;;;;5071276;28;20616;-75
2022/12/15 10:24:33;;;;;;;30.35;12.13;;;-2.10;99.90;;;;;;5068744;28;20250;-74
2022/12/15 10:27:13;;;;;;;11.35;9.13;;;-2.10;99.90;;;;;;5070881;28;20194;-74
2022/12/15 10:29:44;;;;;;;21.48;8.60;;;-2.10;99.90;;;;;;5070522;28;20272;-74
2022/12/15 10:32:18;;;;;;;9.57;6.18;;;-2.10;99.90;;;;;;5070632;28;20194;-74
2022/12/15 10:34:45;;;;;;;18.63;12.60;;;-2.00;99.90;;;;;;5069816;28;20283;-74
2022/12/15 10:37:18;;;;;;;30.52;9.93;;;-1.70;99.90;;;;;;5070737;28;20241;-73
2022/12/15 10:39:46;;;;;;;11.07;7.93;;;-1.50;99.90;;;;;;5061636;28;20719;-74
2022/12/15 10:42:19;;;;;;;0.50;0.40;;;-1.20;99.90;;;;;;5070714;28;20760;-75
2022/12/15 10:44:49;;;;;;;4.65;4.20;;;-0.90;99.90;;;;;;5070098;28;20189;-74
2022/12/15 10:47:21;;;;;;;10.98;9.27;;;-0.70;99.90;;;;;;5070314;28;20197;-74
2022/12/15 10:49:49;;;;;;;6.40;4.45;;;-0.50;99.90;;;;;;5070158;28;20210;-74
2022/12/15 10:52:24;;;;;;;7.50;6.95;;;-0.20;99.90;;;;;;5070807;28;20332;-72
2022/12/15 10:54:52;;;;;;;5.85;3.60;;;0.00;99.90;;;;;;5060510;28;20208;-72
2022/12/15 10:57:26;;;;;;;0.90;0.90;;;0.30;99.90;;;;;;5070925;28;20237;-72
2022/12/15 10:59:53;;;;;;;4.40;2.90;;;0.60;99.90;;;;;;5070424;28;20219;-72
2022/12/15 11:02:35;;;;;;;3.80;1.48;;;0.80;99.90;;;;;;5070418;28;20664;-72
2022/12/15 11:05:04;;;;;;;2.22;2.08;;;0.90;99.90;;;;;;5069498;28;20200;-72
2022/12/15 11:07:40;;;;;;;8.98;6.22;;;0.90;99.90;;;;;;5070674;28;20302;-72
2022/12/15 11:10:17;;;;;;;1.30;1.30;;;1.00;99.90;;;;;;5069759;28;20760;-72
2022/12/15 11:12:52;;;;;;;4.63;4.32;;;1.10;99.90;;;;;;5070026;28;20762;-72
2022/12/15 11:15:52;;;;;;;7.75;6.03;;;1.20;99.90;;;;;;5069290;28;20246;-73
2022/12/15 11:18:29;;;;;;;9.82;6.05;;;1.20;99.90;;;;;;5071467;28;20222;-74
2022/12/15 11:21:02;;;;;;;21.55;14.20;;;1.00;99.90;;;;;;5073976;28;20669;-72
2022/12/15 11:23:45;;;;;;;14.35;8.30;;;0.80;99.90;;;;;;5072476;28;20724;-72
2022/12/15 11:26:22;;;;;;;11.27;6.47;;;0.30;99.90;;;;;;5067750;28;20191;-71
2022/12/15 11:28:56;;;;;;;23.70;9.82;;;-0.10;99.90;;;;;;5073075;28;20301;-71
2022/12/15 11:31:29;;;;;;;7.30;6.35;;;-0.30;99.90;;;;;;5073989;28;20673;-72
2022/12/15 11:33:56;;;;;;;14.65;7.53;;;-0.20;99.90;;;;;;5072917;28;20198;-71
2022/12/15 11:36:47;;;;;;;23.33;6.22;;;0.00;99.90;;;;;;5073368;28;20211;-72
2022/12/15 11:39:24;;;;;;;6.60;5.55;;;-0.10;99.90;;;;;;5073427;28;20661;-72
2022/12/15 11:41:57;;;;;;;14.27;8.48;;;-0.10;99.90;;;;;;5073477;28;20182;-72
2022/12/15 11:44:27;;;;;;;14.43;9.35;;;-0.10;99.90;;;;;;5072450;28;20180;-72
2022/12/15 11:47:10;;;;;;;16.80;4.75;;;-0.10;99.90;;;;;;5074033;28;20281;-75
2022/12/15 11:49:55;;;;;;;5.57;3.65;;;0.00;99.90;;;;;;5073849;28;20578;-75
2022/12/15 11:52:49;;;;;;;27.85;15.68;;;0.10;99.90;;;;;;5073466;28;20641;-74
2022/12/15 11:55:25;;;;;;;5.30;2.30;;;0.30;99.90;;;;;;5055361;28;20221;-72
2022/12/15 11:58:10;;;;;;;4.00;3.60;;;0.40;99.90;;;;;;5052807;28;20179;-73
2022/12/15 12:00:42;;;;;;;10.77;3.95;;;0.60;99.90;;;;;;5053253;28;20286;-73
2022/12/15 12:03:20;;;;;;;2.03;1.92;;;0.80;99.90;;;;;;5052940;28;20186;-72
2022/12/15 12:06:01;;;;;;;13.60;7.47;;;0.90;99.90;;;;;;5052181;28;20640;-73
2022/12/15 12:08:50;;;;;;;14.07;6.22;;;0.90;99.90;;;;;;5052875;28;20225;-72
2022/12/15 12:11:23;;;;;;;2.75;2.53;;;0.70;99.90;;;;;;5052957;28;20197;-72
2022/12/15 12:14:04;;;;;;;0.80;0.80;;;0.60;99.90;;;;;;5052627;28;20181;-72
2022/12/15 12:16:39;;;;;;;0.63;0.50;;;0.60;99.90;;;;;;5052928;28;20785;-73
2022/12/15 12:19:11;;;;;;;15.70;7.72;;;0.70;99.90;;;;;;5052516;28;20237;-72
2022/12/15 12:21:41;;;;;;;7.28;3.03;;;0.70;99.90;;;;;;5052989;28;20685;-72
2022/12/15 12:24:14;;;;;;;3.95;3.55;;;0.50;99.90;;;;;;5059405;28;20483;-71
2022/12/15 12:26:46;;;;;;;11.80;6.93;;;0.40;99.90;;;;;;5071337;28;20660;-73
2022/12/15 12:29:18;;;;;;;18.02;8.95;;;0.30;99.90;;;;;;5072382;28;20309;-72
2022/12/15 12:31:56;;;;;;;2.47;2.38;;;0.00;99.90;;;;;;5072555;28;20689;-75
2022/12/15 12:34:29;;;;;;;10.65;7.50;;;-0.10;99.90;;;;;;5072104;28;20633;-75
2022/12/15 12:37:09;;;;;;;3.03;2.83;;;-0.10;99.90;;;;;;5072609;28;20226;-73
2022/12/15 12:39:36;;;;;;;8.23;6.85;;;-0.10;99.90;;;;;;5072569;28;20305;-74
2022/12/15 12:42:12;;;;;;;6.88;5.35;;;-0.10;99.90;;;;;;5072349;28;20286;-74
2022/12/15 12:44:40;;;;;;;1.50;1.45;;;0.00;99.90;;;;;;5071469;28;20199;-74
2022/12/15 12:47:13;;;;;;;1.63;1.35;;;0.00;99.90;;;;;;5072588;28;20223;-74
2022/12/15 12:49:43;;;;;;;4.93;4.63;;;0.10;99.90;;;;;;5072315;28;20255;-74
2022/12/15 12:52:21;;;;;;;1.05;0.95;;;0.20;99.90;;;;;;5072049;28;20666;-73
2022/12/15 12:54:57;;;;;;;3.20;3.10;;;0.20;99.90;;;;;;5061273;28;20196;-74
2022/12/15 12:57:33;;;;;;;5.90;5.60;;;0.20;99.90;;;;;;5072175;28;20638;-74
2022/12/15 13:00:04;;;;;;;1.45;1.35;;;0.20;99.90;;;;;;5071796;28;20219;-74
2022/12/15 13:02:48;;;;;;;6.80;6.00;;;0.00;99.90;;;;;;5072321;28;20190;-74
2022/12/15 13:05:31;;;;;;;20.25;5.50;;;-0.10;99.90;;;;;;5071570;28;20185;-74
2022/12/15 13:08:44;;;;;;;8.63;6.70;;;-0.10;99.90;;;;;;5070666;28;20191;-73
2022/12/15 13:11:54;;;;;;;22.08;11.30;;;-0.10;99.90;;;;;;5054297;28;20192;-73
2022/12/15 13:14:31;;;;;;;0.68;0.68;;;-0.10;99.90;;;;;;5051318;28;20195;-74
2022/12/15 13:17:04;;;;;;;11.20;6.03;;;-0.20;99.90;;;;;;5051766;28;20222;-75
2022/12/15 13:20:20;;;;;;;7.47;5.13;;;-0.20;99.90;;;;;;5052049;28;20248;-74
2022/12/15 13:22:47;;;;;;;1.70;1.60;;;0.00;99.90;;;;;;5049854;28;20208;-74
2022/12/15 13:25:39;;;;;;;6.22;5.70;;;0.10;99.90;;;;;;5050861;28;20480;-74
2022/12/15 13:28:30;;;;;;;13.35;9.18;;;0.30;99.90;;;;;;5051774;28;20189;-74
2022/12/15 13:31:26;;;;;;;54.20;8.02;;;0.40;99.90;;;;;;5051623;28;20589;-74
2022/12/15 13:33:59;;;;;;;12.10;6.60;;;0.50;99.90;;;;;;5051277;28;20640;-73
2022/12/15 13:36:52;;;;;;;12.48;5.72;;;0.50;99.90;;;;;;5051688;28;20358;-75
2022/12/15 13:39:56;;;;;;;7.00;5.25;;;0.70;99.90;;;;;;5065469;28;20214;-73
2022/12/15 13:42:32;;;;;;;1.63;1.52;;;0.80;99.90;;;;;;5062621;28;20189;-73
2022/12/15 13:45:33;;;;;;;11.57;5.07;;;1.00;99.90;;;;;;5070042;28;20219;-73
2022/12/15 13:48:05;;;;;;;3.47;3.28;;;1.20;99.90;;;;;;5056423;28;20628;-73
2022/12/15 13:50:43;;;;;;;1.30;0.93;;;1.40;99.90;;;;;;5071318;28;20222;-74
2022/12/15 13:53:17;;;;;;;0.50;0.50;;;1.80;99.90;;;;;;5069838;28;20281;-73
2022/12/15 13:55:53;;;;;;;2.47;2.38;;;2.00;99.90;;;;;;5061708;28;20214;-74
2022/12/15 13:58:23;;;;;;;7.13;4.43;;;2.20;99.90;;;;;;5070921;28;20726;-74
2022/12/15 14:00:52;;;;;;;3.40;1.77;;;2.40;99.90;;;;;;5071260;28;20190;-74
2022/12/15 14:03:21;;;;;;;0.50;0.50;;;2.50;99.90;;;;;;5071149;28;20196;-74
2022/12/15 14:05:50;;;;;;;3.25;3.05;;;2.60;99.90;;;;;;5070199;28;20190;-74
2022/12/15 14:08:18;;;;;;;2.22;2.13;;;2.70;99.90;;;;;;5054238;28;20665;-74
2022/12/15 14:13:26;;;;;;;3.60;3.30;;;2.60;99.90;;;;;;5058579;28;20202;-75
2022/12/15 14:15:55;;;;;;;0.57;0.57;;;2.50;99.90;;;;;;5070996;28;20244;-78
2022/12/15 14:18:30;;;;;;;2.58;1.80;;;2.20;99.90;;;;;;5071707;28;20288;-78
2022/12/15 14:20:58;;;;;;;0.50;0.50;;;2.00;99.90;;;;;;5071303;28;20575;-77
2022/12/15 14:23:27;;;;;;;4.93;2.88;;;1.70;99.90;;;;;;5069611;28;20695;-79
2022/12/15 14:26:03;;;;;;;0.80;0.80;;;1.30;99.90;;;;;;5070412;28;20195;-78
2022/12/15 14:28:32;;;;;;;1.10;1.10;;;1.00;99.90;;;;;;5071229;28;20185;-76
2022/12/15 14:31:03;;;;;;;0.50;0.50;;;0.70;99.90;;;;;;5071083;28;20717;-79
2022/12/15 14:33:36;;;;;;;0.60;0.60;;;0.50;99.90;;;;;;5071223;28;20203;-78
2022/12/15 14:36:08;;;;;;;1.50;1.40;;;0.40;99.90;;;;;;5070575;28;20224;-78
2022/12/15 14:38:43;;;;;;;0.85;0.85;;;0.30;99.90;;;;;;5070928;28;20638;-78
2022/12/15 14:41:20;;;;;;;0.50;0.50;;;0.20;99.90;;;;;;5070785;28;20642;-79
2022/12/15 14:43:49;;;;;;;4.07;3.80;;;-0.10;99.90;;;;;;5070323;28;20193;-77
2022/12/15 14:46:18;;;;;;;0.50;0.50;;;-0.30;99.90;;;;;;5070972;28;20189;-80
2022/12/15 14:48:53;;;;;;;0.50;0.50;;;-0.50;99.90;;;;;;5070956;28;20289;-78
2022/12/15 14:51:21;;;;;;;0.50;0.50;;;-0.50;99.90;;;;;;5071353;28;20219;-78
2022/12/15 14:53:49;;;;;;;1.02;1.02;;;-0.60;99.90;;;;;;5072047;28;20285;-78
2022/12/15 14:56:27;;;;;;;0.98;0.98;;;-0.60;99.90;;;;;;5074346;28;20310;-78
2022/12/15 14:59:02;;;;;;;1.42;1.33;;;-0.80;99.90;;;;;;5074456;28;20625;-77
2022/12/15 15:01:33;;;;;;;0.60;0.60;;;-0.90;99.90;;;;;;5074870;28;20225;-79
2022/12/15 15:04:03;;;;;;;0.93;0.93;;;-1.00;99.90;;;;;;5074196;28;20205;-78
2022/12/15 15:06:33;;;;;;;0.50;0.50;;;-1.10;99.90;;;;;;5074536;28;20285;-79
2022/12/15 15:09:14;;;;;;;0.50;0.40;;;-1.20;99.90;;;;;;5074790;28;20201;-74
2022/12/15 15:11:42;;;;;;;2.25;1.65;;;-1.30;99.90;;;;;;5074562;28;20218;-77
2022/12/15 15:14:14;;;;;;;0.55;0.50;;;-1.40;99.90;;;;;;5074145;28;20193;-78
2022/12/15 15:16:42;;;;;;;0.77;0.77;;;-1.40;99.90;;;;;;5074392;28;20200;-78
2022/12/15 15:19:19;;;;;;;0.68;0.68;;;-1.60;99.90;;;;;;5074858;28;20232;-78
2022/12/15 15:21:47;;;;;;;1.40;0.88;;;-1.70;99.90;;;;;;5073832;28;20217;-75
2022/12/15 15:24:25;;;;;;;5.47;2.25;;;-1.90;99.90;;;;;;5071912;28;20205;-77
2022/12/15 15:26:52;;;;;;;0.85;0.85;;;-2.10;99.90;;;;;;5073923;28;20233;-76